aviador You're here:

SCAR Decoded Metar

ARICA in CHILE
Report Time2017-08-23 04:00:00
UTC Time2017-08-23 04:20:09
Flight Rules mvfr MVFR
Wind060° at 04 kt
W.Decomp.*RWY 02: 2.9 kt HW 2.8 kt RCW
W.Rank060° ranks 13
Current wind is above 060° avg. (3.4)
Visibility9999 m
Phenomena:N/A
Clouds:Overcast 019 Hf
Expected CloudBase > 2,000 ft AGL from Temp-Dew spread
Ceiling1,900 ft
Temp16°C (ISA +1)
Dew Point11°C (72% RH)
AAT14.9°C
QNH1019 hPa
Density Alt331 ft
Elevation194 ft
Report Wrong Elevation
Raw Report
SCAR 230400Z 06004KT 9999 OVC019 16/11 Q1019=

Extra information for SCAR:More info

Metar Taf Metar & Taf Last 4 Metars F.Rules Stats Wind Profile Meteogram Temp Stats Airport Information Weather charts Add Link Nearby VenuesMetar ALERT Operation Metar Decoded Social comments